Time;durP1;ratioP1;P1;durP2;ratioP2;P2;SDS_P1;SDS_P2;PMS_P1;PMS_P2;Temp;Humidity;BMP_temperature;BMP_pressure;BME280_temperature;BME280_humidity;BME280_pressure;Samples;Min_cycle;Max_cycle;Signal;HPM_P1;HPM_P2
2023/04/17 00:00:42;;;;;;;21.30;12.00;;;7.00;99.90;;;;;;4423445;28;658286;-69
2023/04/17 00:03:30;;;;;;;24.83;12.50;;;6.90;99.90;;;;;;4457020;28;658725;-69
2023/04/17 00:06:18;;;;;;;20.07;11.87;;;6.80;99.90;;;;;;4437020;28;658909;-69
2023/04/17 00:09:05;;;;;;;21.30;12.53;;;6.80;99.90;;;;;;4437170;28;659218;-69
2023/04/17 00:11:53;;;;;;;20.27;12.53;;;6.80;99.90;;;;;;4445646;28;659503;-69
2023/04/17 00:14:40;;;;;;;21.40;13.17;;;6.80;99.90;;;;;;4450004;28;657955;-69
2023/04/17 00:17:27;;;;;;;22.43;12.07;;;6.70;99.90;;;;;;4446808;28;659638;-69
2023/04/17 00:20:16;;;;;;;27.73;12.80;;;6.60;99.90;;;;;;4455465;28;658624;-69
2023/04/17 00:23:03;;;;;;;22.63;13.00;;;6.60;99.90;;;;;;4429376;28;659160;-69
2023/04/17 00:25:50;;;;;;;20.53;12.77;;;6.60;99.90;;;;;;4430158;28;659287;-69
2023/04/17 00:28:38;;;;;;;23.30;12.83;;;6.60;99.90;;;;;;4448546;28;659666;-69
2023/04/17 00:31:25;;;;;;;22.30;12.77;;;6.50;99.90;;;;;;4433903;28;659196;-69
2023/04/17 00:34:12;;;;;;;22.47;13.27;;;6.50;99.90;;;;;;4444681;28;659441;-69
2023/04/17 00:37:01;;;;;;;29.07;12.67;;;6.50;99.90;;;;;;4456830;28;658915;-69
2023/04/17 00:39:48;;;;;;;20.40;12.27;;;6.40;99.90;;;;;;4434187;28;659279;-69
2023/04/17 00:42:35;;;;;;;21.47;12.30;;;6.40;99.90;;;;;;4426015;28;660293;-69
2023/04/17 00:45:23;;;;;;;21.37;12.10;;;6.30;99.90;;;;;;4438564;28;660461;-69
2023/04/17 00:48:12;;;;;;;22.40;12.80;;;6.30;99.90;;;;;;4443076;28;660902;-69
2023/04/17 00:51:01;;;;;;;20.03;12.50;;;6.10;99.90;;;;;;4463962;28;661045;-69
2023/04/17 00:53:49;;;;;;;23.20;12.97;;;6.10;99.90;;;;;;4432460;28;660097;-69
2023/04/17 00:56:36;;;;;;;22.30;12.90;;;6.10;99.90;;;;;;4418597;28;660988;-69
2023/04/17 00:59:24;;;;;;;26.90;13.73;;;6.10;99.90;;;;;;4452665;28;659866;-69
2023/04/17 01:02:11;;;;;;;22.00;12.00;;;6.00;99.90;;;;;;4417235;28;660046;-69
2023/04/17 01:04:59;;;;;;;20.10;12.17;;;6.00;99.90;;;;;;4442577;28;659667;-69
2023/04/17 01:07:46;;;;;;;21.93;12.70;;;5.90;99.90;;;;;;4417487;28;659451;-69
2023/04/17 01:10:34;;;;;;;22.63;13.07;;;5.80;99.90;;;;;;4453774;28;660512;-69
2023/04/17 01:13:22;;;;;;;21.73;12.27;;;5.80;99.90;;;;;;4416983;28;660269;-69
2023/04/17 01:16:09;;;;;;;21.53;13.23;;;5.70;99.90;;;;;;4432215;28;659221;-69
2023/04/17 01:18:56;;;;;;;25.97;13.47;;;5.70;99.90;;;;;;4419078;28;659812;-69
2023/04/17 01:21:43;;;;;;;25.33;14.55;;;5.70;99.90;;;;;;4438627;28;660081;-69
2023/04/17 01:24:32;;;;;;;23.30;13.50;;;5.70;99.90;;;;;;4420346;28;660304;-69
2023/04/17 01:27:21;;;;;;;21.90;13.40;;;5.80;99.90;;;;;;4441451;28;659925;-69
2023/04/17 01:30:09;;;;;;;25.80;13.90;;;5.90;99.90;;;;;;4421011;28;660769;-69
2023/04/17 01:32:56;;;;;;;28.17;15.00;;;6.10;99.90;;;;;;4419030;28;659567;-69
2023/04/17 01:35:43;;;;;;;27.70;15.60;;;6.20;99.90;;;;;;4440139;28;659364;-69
2023/04/17 01:38:30;;;;;;;29.80;16.60;;;6.20;99.90;;;;;;4433983;28;659639;-69
2023/04/17 01:41:19;;;;;;;26.43;15.80;;;6.30;99.90;;;;;;4443405;28;660765;-69
2023/04/17 01:44:06;;;;;;;28.65;16.38;;;6.30;99.90;;;;;;4432946;28;659620;-69
2023/04/17 01:46:53;;;;;;;29.37;16.43;;;6.30;99.90;;;;;;4455125;28;661047;-69
2023/04/17 01:49:41;;;;;;;26.87;15.87;;;6.30;99.90;;;;;;4418537;28;659419;-69
2023/04/17 01:52:28;;;;;;;29.30;16.00;;;6.30;99.90;;;;;;4444768;28;660629;-69
2023/04/17 01:55:15;;;;;;;32.27;16.30;;;6.30;99.90;;;;;;4422594;28;659783;-69
2023/04/17 01:58:04;;;;;;;28.83;15.73;;;6.30;99.90;;;;;;4437683;28;660899;-69
2023/04/17 02:00:51;;;;;;;26.77;15.87;;;6.30;99.90;;;;;;4420784;28;660780;-69
2023/04/17 02:03:38;;;;;;;28.93;16.50;;;6.40;99.90;;;;;;4453336;28;659854;-69
2023/04/17 02:06:26;;;;;;;31.97;18.17;;;6.50;99.90;;;;;;4415152;28;661450;-69
2023/04/17 02:09:13;;;;;;;31.80;18.77;;;6.50;99.90;;;;;;4449741;28;660880;-69
2023/04/17 02:12:01;;;;;;;30.20;17.43;;;6.70;99.90;;;;;;4423743;28;660155;-69
2023/04/17 02:14:49;;;;;;;32.75;18.98;;;6.70;99.90;;;;;;4433451;28;660037;-69
2023/04/17 02:17:36;;;;;;;29.83;17.37;;;6.90;99.90;;;;;;4416476;28;659932;-69
2023/04/17 02:20:24;;;;;;;28.60;17.90;;;6.90;99.90;;;;;;4440333;28;659778;-69
2023/04/17 02:23:12;;;;;;;29.17;17.63;;;6.90;99.90;;;;;;4420863;28;659817;-69
2023/04/17 02:25:59;;;;;;;28.53;16.27;;;6.90;99.90;;;;;;4450896;28;659605;-69
2023/04/17 02:28:46;;;;;;;25.57;14.87;;;6.80;99.90;;;;;;4421342;28;659773;-69
2023/04/17 02:31:35;;;;;;;27.70;14.98;;;6.80;99.90;;;;;;4449372;28;660691;-69
2023/04/17 02:34:22;;;;;;;24.93;15.20;;;6.70;99.90;;;;;;4420488;28;660975;-69
2023/04/17 02:37:09;;;;;;;27.77;15.10;;;6.70;99.90;;;;;;4441250;28;659898;-68
2023/04/17 02:39:56;;;;;;;23.23;13.60;;;6.70;99.90;;;;;;4418818;28;659468;-69
2023/04/17 02:42:44;;;;;;;29.43;14.10;;;6.60;99.90;;;;;;4445403;28;660234;-69
2023/04/17 02:45:31;;;;;;;23.33;13.27;;;6.50;99.90;;;;;;4420821;28;659449;-69
2023/04/17 02:48:19;;;;;;;23.00;13.10;;;6.40;99.90;;;;;;4449144;28;660473;-69
2023/04/17 02:51:07;;;;;;;22.77;12.43;;;6.40;99.90;;;;;;4416151;28;660641;-68
2023/04/17 02:53:54;;;;;;;19.23;12.50;;;6.40;99.90;;;;;;4439924;28;659705;-68
2023/04/17 02:56:41;;;;;;;20.00;11.93;;;6.40;99.90;;;;;;4423808;28;659645;-68
2023/04/17 02:59:28;;;;;;;24.60;12.10;;;6.20;99.90;;;;;;4451953;28;660506;-69
2023/04/17 03:02:20;;;;;;;24.63;13.47;;;6.10;99.90;;;;;;4422559;28;659766;-68
2023/04/17 03:05:10;;;;;;;22.53;13.03;;;6.00;99.90;;;;;;4422090;28;660950;-68
2023/04/17 03:07:58;;;;;;;23.17;13.63;;;6.00;99.90;;;;;;4419726;28;660315;-69
2023/04/17 03:10:45;;;;;;;24.53;14.80;;;6.00;99.90;;;;;;4429086;28;659616;-68
2023/04/17 03:13:35;;;;;;;30.43;16.70;;;6.10;99.90;;;;;;4441798;28;660262;-68
2023/04/17 03:16:22;;;;;;;37.17;19.07;;;6.20;99.90;;;;;;4422116;28;661354;-68
2023/04/17 03:19:09;;;;;;;34.93;19.40;;;6.50;99.90;;;;;;4436839;28;660153;-68
2023/04/17 03:21:58;;;;;;;37.97;20.73;;;6.70;99.90;;;;;;4416554;28;660314;-68
2023/04/17 03:24:46;;;;;;;40.73;21.23;;;6.90;99.90;;;;;;4426773;28;659939;-68
2023/04/17 03:27:33;;;;;;;39.50;21.57;;;7.10;99.90;;;;;;4457199;28;659945;-68
2023/04/17 03:30:21;;;;;;;40.03;22.17;;;7.20;99.90;;;;;;4432068;28;659818;-68
2023/04/17 03:33:08;;;;;;;40.07;22.50;;;7.40;99.90;;;;;;4456041;28;660941;-68
2023/04/17 03:35:55;;;;;;;44.88;22.77;;;7.40;99.90;;;;;;4430295;28;659398;-68
2023/04/17 03:38:44;;;;;;;43.80;22.53;;;7.60;99.90;;;;;;4454109;28;660247;-68
2023/04/17 03:41:31;;;;;;;47.33;23.10;;;7.60;99.90;;;;;;4436107;28;659308;-68
2023/04/17 03:44:18;;;;;;;48.50;23.47;;;7.60;99.90;;;;;;4441925;28;660545;-68
2023/04/17 03:47:05;;;;;;;48.10;22.13;;;7.70;99.90;;;;;;4438270;28;660031;-68
2023/04/17 03:49:53;;;;;;;43.40;21.77;;;7.70;99.90;;;;;;4456958;28;660433;-68
2023/04/17 03:52:40;;;;;;;43.73;23.13;;;7.80;99.90;;;;;;4447620;28;661095;-68
2023/04/17 03:55:29;;;;;;;43.47;22.57;;;7.80;99.90;;;;;;4457052;28;661123;-68
2023/04/17 03:58:16;;;;;;;44.47;21.43;;;7.80;99.90;;;;;;4429334;28;661202;-68
2023/04/17 04:01:03;;;;;;;40.47;21.50;;;7.80;99.90;;;;;;4441023;27;661167;-68
2023/04/17 04:03:51;;;;;;;46.53;21.70;;;7.90;99.90;;;;;;4421288;28;660457;-68
2023/04/17 04:06:38;;;;;;;43.50;22.30;;;7.80;99.90;;;;;;4460039;28;660720;-68
2023/04/17 04:09:25;;;;;;;42.70;20.70;;;7.90;99.90;;;;;;4423927;28;659880;-68
2023/04/17 04:12:14;;;;;;;45.50;21.40;;;7.80;99.90;;;;;;4453724;28;660589;-68
2023/04/17 04:15:01;;;;;;;43.57;21.60;;;7.90;99.90;;;;;;4418198;28;659484;-68
2023/04/17 04:17:48;;;;;;;44.87;21.93;;;7.90;99.90;;;;;;4439588;28;661019;-68
2023/04/17 04:20:35;;;;;;;40.78;21.42;;;8.00;99.90;;;;;;4428541;28;659960;-69
2023/04/17 04:23:23;;;;;;;43.50;20.63;;;8.00;99.90;;;;;;4451157;28;660901;-68
2023/04/17 04:26:11;;;;;;;44.17;21.07;;;8.20;99.90;;;;;;4436183;28;660151;-69
2023/04/17 04:29:00;;;;;;;42.40;21.60;;;8.30;99.90;;;;;;4457896;28;660285;-69
2023/04/17 04:31:49;;;;;;;44.60;22.53;;;8.40;99.90;;;;;;4419363;28;660614;-69
2023/04/17 04:34:36;;;;;;;45.33;22.67;;;8.50;99.90;;;;;;4429454;28;660150;-69
2023/04/17 04:37:28;;;;;;;44.20;22.77;;;8.60;99.90;;;;;;4445683;28;660409;-69
2023/04/17 04:40:16;;;;;;;45.20;22.13;;;8.70;99.90;;;;;;4396613;28;659720;-69
2023/04/17 04:43:04;;;;;;;44.97;22.90;;;8.70;99.90;;;;;;4461768;28;660380;-69
2023/04/17 04:45:53;;;;;;;47.37;21.63;;;8.80;99.90;;;;;;4420652;28;660080;-69
2023/04/17 04:48:40;;;;;;;42.03;21.80;;;8.90;99.90;;;;;;4431577;28;660281;-69
2023/04/17 04:51:28;;;;;;;45.30;23.13;;;9.00;99.90;;;;;;4443440;28;661283;-69
2023/04/17 04:54:15;;;;;;;43.40;22.50;;;9.00;99.90;;;;;;4441180;28;659528;-69
2023/04/17 04:57:02;;;;;;;42.03;21.37;;;9.10;99.90;;;;;;4465621;27;660673;-69
2023/04/17 04:59:50;;;;;;;41.73;20.97;;;9.10;99.90;;;;;;4455869;28;659723;-69
2023/04/17 05:02:39;;;;;;;45.23;21.60;;;9.20;99.90;;;;;;4451454;28;661490;-69
2023/04/17 05:05:26;;;;;;;41.40;21.50;;;9.20;99.90;;;;;;4429282;28;661272;-69
2023/04/17 05:08:13;;;;;;;39.20;19.63;;;9.20;99.90;;;;;;4456273;28;660041;-69
2023/04/17 05:11:00;;;;;;;38.37;19.60;;;9.20;99.90;;;;;;4421296;28;659568;-69
2023/04/17 05:13:48;;;;;;;39.00;19.90;;;9.10;99.90;;;;;;4446409;28;659670;-69
2023/04/17 05:16:35;;;;;;;36.57;18.87;;;9.20;99.90;;;;;;4437285;28;660110;-69
2023/04/17 05:19:24;;;;;;;42.07;19.17;;;9.30;99.90;;;;;;4439746;28;660385;-70
2023/04/17 05:22:11;;;;;;;35.70;19.30;;;9.40;99.90;;;;;;4412947;28;659567;-69
2023/04/17 05:24:58;;;;;;;32.47;18.23;;;9.40;99.90;;;;;;4456531;28;660738;-69
2023/04/17 05:27:46;;;;;;;37.30;19.70;;;9.40;99.90;;;;;;4428844;28;660136;-69
2023/04/17 05:30:33;;;;;;;38.90;19.90;;;9.40;99.90;;;;;;4445512;28;660517;-69
2023/04/17 05:33:20;;;;;;;42.30;20.43;;;9.40;99.90;;;;;;4431911;28;659675;-69
2023/04/17 05:36:09;;;;;;;43.87;22.13;;;9.50;99.90;;;;;;4436075;28;660394;-70
2023/04/17 05:38:56;;;;;;;53.00;24.00;;;9.50;99.90;;;;;;4422394;28;659547;-69
2023/04/17 05:41:44;;;;;;;50.67;23.73;;;9.40;99.90;;;;;;4449607;28;660288;-69
2023/04/17 05:44:31;;;;;;;49.93;25.10;;;9.50;99.90;;;;;;4420530;28;659832;-69
2023/04/17 05:47:18;;;;;;;45.90;23.17;;;9.70;99.90;;;;;;4455696;28;660143;-69
2023/04/17 05:50:07;;;;;;;45.83;22.23;;;9.80;99.90;;;;;;4422300;28;660265;-70
2023/04/17 05:52:55;;;;;;;42.83;21.40;;;10.00;99.90;;;;;;4443201;28;660553;-69
2023/04/17 05:55:43;;;;;;;40.70;21.00;;;10.00;99.90;;;;;;4417526;28;661113;-69
2023/04/17 05:58:30;;;;;;;39.30;20.60;;;10.20;99.90;;;;;;4421201;28;660909;-69
2023/04/17 06:01:21;;;;;;;40.80;19.80;;;10.10;99.90;;;;;;4438242;28;660843;-70
2023/04/17 06:04:08;;;;;;;36.10;19.17;;;10.30;99.90;;;;;;4424402;28;661199;-70
2023/04/17 06:06:55;;;;;;;37.00;18.63;;;10.50;99.90;;;;;;4422931;28;660598;-70
2023/04/17 06:09:44;;;;;;;37.90;19.50;;;10.60;99.90;;;;;;4439181;28;661492;-69
2023/04/17 06:12:31;;;;;;;39.97;19.53;;;10.70;99.90;;;;;;4413088;28;660999;-70
2023/04/17 06:15:18;;;;;;;74.78;27.85;;;10.70;99.90;;;;;;4450525;28;660851;-71
2023/04/17 06:18:06;;;;;;;124.87;38.17;;;10.50;99.90;;;;;;4430496;28;660710;-71
2023/04/17 06:20:53;;;;;;;119.57;41.33;;;10.40;99.90;;;;;;4444935;28;662816;-71
2023/04/17 06:23:40;;;;;;;67.70;30.60;;;10.60;99.90;;;;;;4428295;28;661951;-71
2023/04/17 06:26:29;;;;;;;56.20;25.03;;;10.90;99.90;;;;;;4428415;28;661881;-71
2023/04/17 06:29:16;;;;;;;59.40;24.75;;;11.00;99.90;;;;;;4428586;28;660721;-71
2023/04/17 06:32:03;;;;;;;42.27;20.13;;;10.90;99.90;;;;;;4452126;28;661278;-71
2023/04/17 06:34:51;;;;;;;36.43;18.70;;;11.20;99.90;;;;;;4416829;28;660896;-71
2023/04/17 06:37:38;;;;;;;36.87;18.87;;;11.30;99.90;;;;;;4444414;28;661472;-72
2023/04/17 06:40:25;;;;;;;35.27;18.70;;;11.30;99.90;;;;;;4425734;28;661255;-71
2023/04/17 06:43:15;;;;;;;67.67;28.10;;;11.50;99.90;;;;;;4447822;28;661481;-71
2023/04/17 06:46:02;;;;;;;70.20;32.20;;;11.50;99.90;;;;;;4422205;28;661503;-72
2023/04/17 06:48:51;;;;;;;56.23;27.73;;;11.70;99.90;;;;;;4434695;28;660778;-71
2023/04/17 06:51:38;;;;;;;39.37;21.30;;;11.70;99.90;;;;;;4419151;28;661280;-72
2023/04/17 06:54:25;;;;;;;54.07;27.57;;;11.60;99.90;;;;;;4428757;28;661244;-72
2023/04/17 06:57:12;;;;;;;35.53;17.43;;;11.40;99.90;;;;;;4449340;28;661876;-71
2023/04/17 07:00:02;;;;;;;44.90;23.67;;;11.30;99.90;;;;;;4437866;28;661485;-72
2023/04/17 07:02:50;;;;;;;47.83;25.80;;;11.20;99.90;;;;;;4439940;28;660314;-72
2023/04/17 07:05:37;;;;;;;39.50;20.63;;;11.30;99.90;;;;;;4428850;28;661927;-72
2023/04/17 07:08:25;;;;;;;40.03;21.87;;;11.30;99.90;;;;;;4448396;28;660785;-71
2023/04/17 07:11:12;;;;;;;42.20;22.77;;;11.30;99.90;;;;;;4422295;28;660965;-71
2023/04/17 07:13:59;;;;;;;25.97;14.00;;;11.30;99.90;;;;;;4438741;28;661450;-72
2023/04/17 07:16:48;;;;;;;32.05;17.83;;;11.30;99.90;;;;;;4424378;28;660372;-71
2023/04/17 07:19:35;;;;;;;46.13;24.43;;;11.30;99.90;;;;;;4428614;28;660831;-71
2023/04/17 07:22:22;;;;;;;41.13;19.80;;;11.50;99.90;;;;;;4436442;28;663827;-71
2023/04/17 07:25:10;;;;;;;40.93;19.93;;;11.30;99.90;;;;;;4438726;27;660933;-71
2023/04/17 07:27:57;;;;;;;31.53;16.13;;;11.40;99.90;;;;;;4442124;28;660771;-72
2023/04/17 07:30:45;;;;;;;29.90;15.57;;;11.30;99.90;;;;;;4446729;28;660908;-72
2023/04/17 07:33:33;;;;;;;33.63;17.30;;;11.30;99.90;;;;;;4422369;28;662329;-72
2023/04/17 07:36:21;;;;;;;28.83;15.10;;;11.40;99.90;;;;;;4423705;28;661642;-72
2023/04/17 07:39:08;;;;;;;24.77;15.40;;;11.30;99.90;;;;;;4445740;28;660770;-72
2023/04/17 07:41:55;;;;;;;27.57;16.27;;;11.40;99.90;;;;;;4428892;28;660360;-71
2023/04/17 07:44:42;;;;;;;38.23;20.23;;;11.60;99.90;;;;;;4457782;28;661606;-72
2023/04/17 07:47:30;;;;;;;38.17;19.53;;;11.80;99.90;;;;;;4451021;28;660843;-72
2023/04/17 07:50:19;;;;;;;49.33;24.23;;;12.10;99.90;;;;;;4419211;28;661251;-72
2023/04/17 07:53:07;;;;;;;30.97;17.50;;;12.50;99.90;;;;;;4429798;28;660703;-71
2023/04/17 07:55:54;;;;;;;27.37;15.07;;;12.90;99.90;;;;;;4443688;28;660353;-72
2023/04/17 07:58:43;;;;;;;24.10;13.23;;;13.60;99.90;;;;;;4420119;28;661596;-71
2023/04/17 08:01:32;;;;;;;22.37;12.87;;;13.90;99.90;;;;;;4436246;28;660909;-72
2023/04/17 08:04:19;;;;;;;22.57;12.47;;;14.20;99.90;;;;;;4454282;28;661155;-72
2023/04/17 08:07:09;;;;;;;26.37;14.17;;;14.50;99.90;;;;;;4436510;28;661023;-72
2023/04/17 08:09:57;;;;;;;28.10;16.00;;;15.10;99.90;;;;;;4424030;28;662045;-72
2023/04/17 08:12:44;;;;;;;27.23;13.63;;;15.40;99.90;;;;;;4442556;28;660301;-72
2023/04/17 08:15:32;;;;;;;65.00;22.33;;;15.30;99.90;;;;;;4423504;28;661211;-72
2023/04/17 08:18:19;;;;;;;48.13;19.13;;;14.80;99.90;;;;;;4440116;28;660254;-72
2023/04/17 08:21:06;;;;;;;43.25;19.05;;;15.00;99.90;;;;;;4416339;28;660810;-72
2023/04/17 08:23:55;;;;;;;25.63;13.00;;;15.30;99.90;;;;;;4449112;28;661461;-72
2023/04/17 08:26:42;;;;;;;27.47;13.10;;;15.20;99.90;;;;;;4423758;28;661822;-72
2023/04/17 08:29:29;;;;;;;26.93;13.30;;;15.40;99.90;;;;;;4442964;28;660325;-72
2023/04/17 08:32:16;;;;;;;20.37;11.60;;;15.50;99.90;;;;;;4423580;28;661210;-73
2023/04/17 08:35:04;;;;;;;19.03;11.83;;;15.40;99.90;;;;;;4441211;28;661325;-72
2023/04/17 08:41:13;;;;;;;15.97;10.47;;;15.60;99.90;;;;;;4426946;28;661301;-72
2023/04/17 08:44:00;;;;;;;17.73;10.30;;;16.10;99.90;;;;;;4406918;28;661308;-72
2023/04/17 08:46:47;;;;;;;21.50;11.37;;;16.10;99.90;;;;;;4449799;28;661271;-72
2023/04/17 08:49:35;;;;;;;20.03;11.57;;;15.90;99.90;;;;;;4438682;28;660602;-72
2023/04/17 08:52:22;;;;;;;30.63;16.10;;;15.80;99.90;;;;;;4451132;28;662242;-72
2023/04/17 08:55:11;;;;;;;19.47;11.17;;;15.70;99.90;;;;;;4450096;28;661035;-72
2023/04/17 08:58:02;;;;;;;16.30;9.67;;;15.60;99.90;;;;;;4457831;28;661178;-72
2023/04/17 09:00:49;;;;;;;14.90;9.67;;;15.60;99.90;;;;;;4424378;28;659401;-72
2023/04/17 09:03:40;;;;;;;33.27;16.73;;;15.70;99.90;;;;;;4431669;28;660688;-72
2023/04/17 09:06:28;;;;;;;16.13;9.63;;;16.10;99.90;;;;;;4413909;28;661559;-72
2023/04/17 09:09:16;;;;;;;15.33;9.87;;;16.70;99.90;;;;;;4416995;28;659687;-72
2023/04/17 09:12:09;;;;;;;27.60;12.03;;;16.60;99.90;;;;;;4439112;28;660430;-72
2023/04/17 09:14:57;;;;;;;19.87;11.50;;;16.30;99.90;;;;;;4418532;28;660723;-72
2023/04/17 09:17:44;;;;;;;17.57;10.70;;;15.90;99.90;;;;;;4430311;28;660413;-72
2023/04/17 09:20:32;;;;;;;16.20;9.97;;;15.60;99.90;;;;;;4405329;28;661585;-72
2023/04/17 09:23:19;;;;;;;19.40;11.63;;;15.50;99.90;;;;;;4433848;28;659967;-72
2023/04/17 09:26:07;;;;;;;19.13;11.17;;;15.50;99.90;;;;;;4413567;28;661391;-72
2023/04/17 09:29:02;;;;;;;25.83;13.63;;;15.50;99.90;;;;;;4430779;28;661152;-72
2023/04/17 09:31:51;;;;;;;35.17;20.60;;;15.40;99.90;;;;;;4396156;28;660889;-71
2023/04/17 09:34:40;;;;;;;17.13;11.33;;;15.30;99.90;;;;;;4401175;28;662327;-72
2023/04/17 09:37:49;;;;;;;26.50;16.00;;;14.90;99.90;;;;;;4413299;27;661594;-72
2023/04/17 09:40:38;;;;;;;26.07;16.00;;;14.60;99.90;;;;;;4379924;28;661079;-72
2023/04/17 09:43:25;;;;;;;33.20;18.97;;;14.20;99.90;;;;;;4423740;28;661287;-72
2023/04/17 09:46:13;;;;;;;57.60;28.93;;;13.80;99.90;;;;;;4434644;28;661905;-72
2023/04/17 09:49:03;;;;;;;39.20;22.67;;;13.40;99.90;;;;;;4414343;28;660499;-71
2023/04/17 09:51:51;;;;;;;42.90;22.60;;;13.20;99.90;;;;;;4419318;28;660374;-72
2023/04/17 09:54:38;;;;;;;66.90;27.63;;;13.00;99.90;;;;;;4434012;28;662285;-71
2023/04/17 09:57:26;;;;;;;63.20;25.77;;;13.10;99.90;;;;;;4409576;28;660852;-71
2023/04/17 10:00:14;;;;;;;64.43;26.00;;;13.00;99.90;;;;;;4440496;28;661070;-72
2023/04/17 10:03:01;;;;;;;68.27;28.77;;;13.00;99.90;;;;;;4411046;28;660987;-72
2023/04/17 10:05:50;;;;;;;41.70;21.27;;;13.00;99.90;;;;;;4421664;28;661734;-72
2023/04/17 10:08:37;;;;;;;62.67;26.33;;;13.00;99.90;;;;;;4399577;28;661915;-72
2023/04/17 10:11:27;;;;;;;65.97;31.60;;;12.80;99.90;;;;;;4418485;28;661074;-72
2023/04/17 10:14:17;;;;;;;62.77;30.40;;;12.60;99.90;;;;;;4410120;28;661150;-72
2023/04/17 10:17:22;;;;;;;52.80;26.83;;;12.40;99.90;;;;;;4431133;28;661307;-73
2023/04/17 10:20:35;;;;;;;57.07;27.83;;;12.20;99.90;;;;;;4405996;28;660815;-72
2023/04/17 10:23:31;;;;;;;70.80;27.47;;;12.10;99.90;;;;;;4377600;28;660983;-72
2023/04/17 10:26:42;;;;;;;58.13;26.97;;;12.10;99.90;;;;;;4404249;28;661327;-71
2023/04/17 10:29:53;;;;;;;160.03;52.50;;;12.20;99.90;;;;;;4402950;28;661267;-72
2023/04/17 10:32:42;;;;;;;112.37;41.37;;;12.40;99.90;;;;;;4383353;28;661407;-72
2023/04/17 10:35:36;;;;;;;124.93;43.17;;;12.60;99.90;;;;;;4430297;28;661643;-72
2023/04/17 10:38:37;;;;;;;68.77;31.23;;;12.80;99.90;;;;;;4399556;28;662425;-73
2023/04/17 10:41:25;;;;;;;51.07;24.60;;;13.00;99.90;;;;;;4411759;28;661986;-73
2023/04/17 10:44:12;;;;;;;76.53;32.80;;;13.30;99.90;;;;;;4410664;28;661419;-72
2023/04/17 10:47:05;;;;;;;32.93;17.37;;;13.30;99.90;;;;;;4427155;28;660855;-72
2023/04/17 10:49:54;;;;;;;70.37;31.07;;;13.40;99.90;;;;;;4387444;28;662075;-72
2023/04/17 10:52:43;;;;;;;47.75;23.17;;;13.50;99.90;;;;;;4410443;28;661254;-72
2023/04/17 10:55:32;;;;;;;74.03;32.33;;;13.50;99.90;;;;;;4407167;28;660763;-72
2023/04/17 10:58:19;;;;;;;46.67;24.73;;;13.40;99.90;;;;;;4435798;28;660532;-73
2023/04/17 11:01:10;;;;;;;31.63;18.53;;;13.40;99.90;;;;;;4409199;28;660676;-72
2023/04/17 11:03:58;;;;;;;38.70;20.13;;;13.30;99.90;;;;;;4414074;28;662639;-73
2023/04/17 11:06:45;;;;;;;45.07;23.03;;;13.30;99.90;;;;;;4418296;28;660634;-72
2023/04/17 11:09:32;;;;;;;29.63;17.50;;;13.40;99.90;;;;;;4430469;28;661691;-72
2023/04/17 11:12:22;;;;;;;25.23;15.60;;;13.50;99.90;;;;;;4424984;28;661330;-71
2023/04/17 11:15:09;;;;;;;77.17;32.90;;;13.70;99.90;;;;;;4437549;28;660108;-73
2023/04/17 11:17:57;;;;;;;22.83;12.97;;;13.80;99.90;;;;;;4418564;28;662035;-72
2023/04/17 11:20:45;;;;;;;35.83;18.43;;;13.80;99.90;;;;;;4440222;28;660367;-73
2023/04/17 11:23:33;;;;;;;27.73;17.00;;;13.70;99.90;;;;;;4420967;28;662075;-73
2023/04/17 11:26:22;;;;;;;25.43;15.90;;;13.50;99.90;;;;;;4424274;28;660883;-72
2023/04/17 11:29:15;;;;;;;24.77;15.37;;;13.40;99.90;;;;;;4444904;28;660456;-73
2023/04/17 11:32:02;;;;;;;24.67;15.27;;;13.30;99.90;;;;;;4415417;28;661193;-73
2023/04/17 11:34:50;;;;;;;26.80;14.90;;;13.10;99.90;;;;;;4437813;28;660652;-73
2023/04/17 11:38:05;;;;;;;18.70;12.00;;;13.00;99.90;;;;;;4411120;28;661720;-73
2023/04/17 11:40:53;;;;;;;72.10;21.67;;;12.70;99.90;;;;;;4387397;28;661515;-72
2023/04/17 11:43:42;;;;;;;29.90;14.37;;;12.40;99.90;;;;;;4419883;28;660932;-72
2023/04/17 11:46:32;;;;;;;20.60;11.70;;;12.40;99.90;;;;;;4433728;28;661320;-71
2023/04/17 11:49:24;;;;;;;22.73;12.50;;;12.30;99.90;;;;;;4434436;28;660724;-73
2023/04/17 11:52:11;;;;;;;20.17;11.60;;;12.30;99.90;;;;;;4396830;28;661426;-72
2023/04/17 11:54:58;;;;;;;20.63;12.93;;;12.30;99.90;;;;;;4437322;28;661705;-73
2023/04/17 11:57:45;;;;;;;17.70;10.60;;;12.30;99.90;;;;;;4422883;28;662227;-72
2023/04/17 12:00:33;;;;;;;22.07;10.53;;;12.30;99.90;;;;;;4439813;28;660490;-72
2023/04/17 12:03:34;;;;;;;17.13;10.70;;;12.50;99.90;;;;;;4422450;28;660955;-72
2023/04/17 12:06:23;;;;;;;17.17;10.43;;;12.40;99.90;;;;;;4392160;28;661244;-72
2023/04/17 12:09:10;;;;;;;18.07;9.87;;;12.40;99.90;;;;;;4428556;28;661108;-72
2023/04/17 12:11:58;;;;;;;17.13;10.50;;;12.30;99.90;;;;;;4443806;28;660363;-73
2023/04/17 12:14:45;;;;;;;15.33;9.40;;;12.30;99.90;;;;;;4428074;28;660956;-72
2023/04/17 12:17:32;;;;;;;20.60;12.90;;;12.50;99.90;;;;;;4437587;28;661439;-73
2023/04/17 12:20:21;;;;;;;21.63;12.40;;;12.70;99.90;;;;;;4440671;28;660458;-72
2023/04/17 12:23:08;;;;;;;18.97;12.40;;;12.80;99.90;;;;;;4414605;28;661898;-72
2023/04/17 12:25:55;;;;;;;16.33;9.90;;;12.80;99.90;;;;;;4410451;28;660395;-72
2023/04/17 12:28:43;;;;;;;22.70;12.17;;;13.00;99.90;;;;;;4438716;28;660361;-73
2023/04/17 12:31:30;;;;;;;21.53;14.37;;;12.90;99.90;;;;;;4432207;28;660662;-72
2023/04/17 12:34:17;;;;;;;17.57;9.83;;;12.90;99.90;;;;;;4438729;28;661620;-73
2023/04/17 12:37:06;;;;;;;20.40;12.37;;;13.00;99.90;;;;;;4436046;28;659685;-72
2023/04/17 12:39:53;;;;;;;34.73;21.20;;;12.60;99.90;;;;;;4416800;28;662193;-73
2023/04/17 12:42:40;;;;;;;20.77;12.50;;;12.70;99.90;;;;;;4416047;28;660646;-73
2023/04/17 12:45:27;;;;;;;56.93;32.10;;;12.80;99.90;;;;;;4439168;28;661538;-72
2023/04/17 12:48:15;;;;;;;49.57;28.87;;;12.80;99.90;;;;;;4434282;28;660758;-72
2023/04/17 12:51:03;;;;;;;23.43;14.60;;;12.90;99.90;;;;;;4439907;28;664455;-73
2023/04/17 12:53:52;;;;;;;29.70;18.97;;;12.80;99.90;;;;;;4425631;28;660911;-72
2023/04/17 12:56:39;;;;;;;27.45;18.15;;;12.70;99.90;;;;;;4436812;28;661340;-73
2023/04/17 12:59:26;;;;;;;29.47;16.90;;;12.50;99.90;;;;;;4419648;28;661265;-72
2023/04/17 13:02:14;;;;;;;21.23;14.13;;;12.40;99.90;;;;;;4435371;28;660916;-73
2023/04/17 13:05:01;;;;;;;27.20;17.03;;;12.30;99.90;;;;;;4415547;28;660352;-74
2023/04/17 13:07:48;;;;;;;25.40;17.80;;;12.30;99.90;;;;;;4437329;28;662537;-73
2023/04/17 13:10:37;;;;;;;24.20;13.33;;;12.30;99.90;;;;;;4417007;28;660474;-74
2023/04/17 13:13:24;;;;;;;26.93;15.90;;;12.20;99.90;;;;;;4450006;28;661185;-74
2023/04/17 13:16:12;;;;;;;19.87;10.17;;;12.20;99.90;;;;;;4428881;28;662502;-74
2023/04/17 13:18:59;;;;;;;18.97;11.60;;;12.10;99.90;;;;;;4456919;28;659772;-73
2023/04/17 13:21:46;;;;;;;29.67;19.27;;;12.00;99.90;;;;;;4425260;28;661227;-73
2023/04/17 13:24:34;;;;;;;27.13;15.73;;;12.00;99.90;;;;;;4454737;28;662274;-73
2023/04/17 13:27:24;;;;;;;20.97;10.20;;;12.10;99.90;;;;;;4428140;28;661242;-72
2023/04/17 13:30:12;;;;;;;15.20;9.23;;;12.10;99.90;;;;;;4436309;28;660546;-72
2023/04/17 13:32:59;;;;;;;16.33;8.60;;;12.00;99.90;;;;;;4453942;28;660238;-73
2023/04/17 13:35:46;;;;;;;16.27;10.53;;;12.00;99.90;;;;;;4431854;28;659712;-71
2023/04/17 13:38:33;;;;;;;13.10;8.23;;;12.00;99.90;;;;;;4439219;28;662007;-72
2023/04/17 13:41:20;;;;;;;10.57;6.20;;;12.10;99.90;;;;;;4428600;28;659514;-71
2023/04/17 13:44:09;;;;;;;10.63;6.07;;;12.10;99.90;;;;;;4449407;28;661552;-72
2023/04/17 13:46:56;;;;;;;13.60;7.80;;;12.10;99.90;;;;;;4424697;28;659790;-72
2023/04/17 13:49:43;;;;;;;10.90;6.77;;;12.10;99.90;;;;;;4443900;28;660043;-72
2023/04/17 13:52:30;;;;;;;11.27;6.63;;;12.10;99.90;;;;;;4435530;28;660342;-72
2023/04/17 13:55:18;;;;;;;12.03;7.00;;;11.90;99.90;;;;;;4457361;28;659281;-73
2023/04/17 13:58:05;;;;;;;12.07;7.00;;;11.70;99.90;;;;;;4441894;28;659498;-73
2023/04/17 14:00:54;;;;;;;13.07;8.63;;;11.60;99.90;;;;;;4443464;28;661195;-72
2023/04/17 14:03:41;;;;;;;18.30;8.27;;;11.60;99.90;;;;;;4437192;28;660551;-73
2023/04/17 14:06:28;;;;;;;16.63;9.10;;;11.60;99.90;;;;;;4452184;28;660454;-73
2023/04/17 14:09:16;;;;;;;18.43;9.80;;;11.50;99.90;;;;;;4435672;28;659885;-72